createdAt,value
2023-04-19T00:00:07.944Z,0.10
2023-04-19T00:01:07.940Z,0.10
2023-04-19T00:02:08.016Z,0.10
2023-04-19T00:03:08.120Z,0.10
2023-04-19T00:04:07.956Z,0.10
2023-04-19T00:05:07.909Z,0.10
2023-04-19T00:06:07.869Z,0.10
2023-04-19T00:07:07.860Z,0.10
2023-04-19T00:08:07.851Z,0.10
2023-04-19T00:09:07.831Z,0.10
2023-04-19T00:10:07.865Z,0.10
2023-04-19T00:11:07.810Z,0.10
2023-04-19T00:12:07.789Z,0.10
2023-04-19T00:13:07.781Z,0.10
2023-04-19T00:14:07.765Z,0.10
2023-04-19T00:15:07.750Z,0.10
2023-04-19T00:16:07.740Z,0.10
2023-04-19T00:17:07.794Z,0.10
2023-04-19T00:18:07.744Z,0.10
2023-04-19T00:19:07.734Z,0.10
2023-04-19T00:20:07.698Z,0.10
2023-04-19T00:21:07.688Z,0.10
2023-04-19T00:22:07.661Z,0.00
2023-04-19T00:23:07.649Z,0.10
2023-04-19T00:24:07.635Z,0.10
2023-04-19T00:25:07.635Z,0.10
2023-04-19T00:26:07.636Z,0.10
2023-04-19T00:27:07.617Z,0.10
2023-04-19T00:28:07.584Z,0.10
2023-04-19T00:29:07.575Z,0.10
2023-04-19T00:30:07.554Z,0.10
2023-04-19T00:31:07.607Z,0.10
2023-04-19T00:32:07.542Z,0.10
2023-04-19T00:33:07.573Z,0.10
2023-04-19T00:34:07.507Z,0.10
2023-04-19T00:35:07.490Z,0.10
2023-04-19T00:36:07.485Z,0.10
2023-04-19T00:37:07.464Z,0.10
2023-04-19T00:38:07.447Z,0.10
2023-04-19T00:39:07.442Z,0.10
2023-04-19T00:40:07.422Z,0.10
2023-04-19T00:41:07.412Z,0.10
2023-04-19T00:42:07.424Z,0.10
2023-04-19T00:43:07.388Z,0.10
2023-04-19T00:44:07.381Z,0.10
2023-04-19T00:45:07.356Z,0.10
2023-04-19T00:46:07.398Z,0.10
2023-04-19T00:47:07.331Z,0.10
2023-04-19T00:48:07.337Z,0.10
2023-04-19T00:49:07.307Z,0.10
2023-04-19T00:50:07.290Z,0.10
2023-04-19T00:51:07.280Z,0.10
2023-04-19T00:52:07.280Z,0.10
2023-04-19T00:53:07.255Z,0.10
2023-04-19T00:54:07.245Z,0.10
2023-04-19T00:55:07.247Z,0.10
2023-04-19T00:56:07.233Z,0.10
2023-04-19T00:57:07.205Z,0.10
2023-04-19T00:58:07.216Z,0.10
2023-04-19T01:00:07.165Z,0.10
2023-04-19T01:01:07.181Z,0.10
2023-04-19T01:02:07.178Z,0.10
2023-04-19T01:03:07.222Z,0.10
2023-04-19T01:04:07.247Z,0.10
2023-04-19T01:05:07.096Z,0.10
2023-04-19T01:06:07.084Z,0.10
2023-04-19T01:07:07.069Z,0.10
2023-04-19T01:08:07.054Z,0.10
2023-04-19T01:09:07.048Z,0.10
2023-04-19T01:10:07.030Z,0.10
2023-04-19T01:11:07.019Z,0.10
2023-04-19T01:12:07.018Z,0.10
2023-04-19T01:13:06.986Z,0.10
2023-04-19T01:14:07.020Z,0.10
2023-04-19T01:15:06.970Z,0.10
2023-04-19T01:16:06.975Z,0.10
2023-04-19T01:17:06.938Z,0.10
2023-04-19T01:18:06.944Z,0.10
2023-04-19T01:19:06.920Z,0.10
2023-04-19T01:20:06.903Z,0.10
2023-04-19T01:21:06.885Z,0.10
2023-04-19T01:22:06.882Z,0.10
2023-04-19T01:23:06.881Z,0.20
2023-04-19T01:24:06.847Z,0.10
2023-04-19T01:25:06.834Z,0.20
2023-04-19T01:26:06.864Z,0.20
2023-04-19T01:27:06.803Z,0.10
2023-04-19T01:28:06.785Z,0.10
2023-04-19T01:29:06.788Z,0.10
2023-04-19T01:30:06.787Z,0.10
2023-04-19T01:31:06.787Z,0.10
2023-04-19T01:32:06.734Z,0.20
2023-04-19T01:33:06.736Z,0.10
2023-04-19T01:34:06.724Z,0.10
2023-04-19T01:35:06.725Z,0.10
2023-04-19T01:36:06.682Z,0.20
2023-04-19T01:37:06.674Z,0.10
2023-04-19T01:38:06.660Z,0.10
2023-04-19T01:39:06.644Z,0.20
2023-04-19T01:40:06.645Z,0.10
2023-04-19T01:41:06.621Z,0.20
2023-04-19T01:42:06.610Z,0.20
2023-04-19T01:43:06.591Z,0.10
2023-04-19T01:44:06.580Z,0.20
2023-04-19T01:45:06.604Z,0.10
2023-04-19T01:46:06.584Z,0.10
2023-04-19T01:47:06.583Z,0.20
2023-04-19T01:48:06.578Z,0.10
2023-04-19T01:49:06.520Z,0.10
2023-04-19T01:50:06.507Z,0.10
2023-04-19T01:51:06.491Z,0.10
2023-04-19T01:52:06.480Z,0.10
2023-04-19T01:53:06.465Z,0.20
2023-04-19T01:54:06.452Z,0.10
2023-04-19T01:55:06.439Z,0.10
2023-04-19T01:56:06.427Z,0.20
2023-04-19T01:57:06.411Z,0.10
2023-04-19T01:58:06.408Z,0.10
2023-04-19T01:59:06.386Z,0.10
2023-04-19T02:00:06.377Z,0.10
2023-04-19T02:01:06.473Z,0.10
2023-04-19T02:02:06.521Z,0.10
2023-04-19T02:03:06.420Z,0.10
2023-04-19T02:04:06.368Z,0.20
2023-04-19T02:05:06.309Z,0.10
2023-04-19T02:06:06.299Z,0.10
2023-04-19T02:07:06.295Z,0.10
2023-04-19T02:08:06.293Z,0.10
2023-04-19T02:09:06.261Z,0.10
2023-04-19T02:10:06.253Z,0.10
2023-04-19T02:11:06.231Z,0.10
2023-04-19T02:12:06.266Z,0.10
2023-04-19T02:13:06.214Z,0.20
2023-04-19T02:14:06.199Z,0.10
2023-04-19T02:15:06.185Z,0.10
2023-04-19T02:16:06.309Z,0.10
2023-04-19T02:17:06.172Z,0.10
2023-04-19T02:18:06.325Z,0.10
2023-04-19T02:19:06.135Z,0.10
2023-04-19T02:20:06.124Z,0.10
2023-04-19T02:21:06.130Z,0.20
2023-04-19T02:22:06.099Z,0.10
2023-04-19T02:23:06.086Z,0.10
2023-04-19T02:24:06.072Z,0.20
2023-04-19T02:25:06.065Z,0.10
2023-04-19T02:26:06.048Z,0.10
2023-04-19T02:27:06.035Z,0.20
2023-04-19T02:28:06.026Z,0.10
2023-04-19T02:29:07.049Z,0.10
2023-04-19T02:30:05.999Z,0.10
2023-04-19T02:31:06.008Z,0.10
2023-04-19T02:32:06.094Z,0.10
2023-04-19T02:33:05.983Z,0.10
2023-04-19T02:34:05.970Z,0.10
2023-04-19T02:35:05.934Z,0.10
2023-04-19T02:36:05.921Z,0.10
2023-04-19T02:37:05.908Z,0.10
2023-04-19T02:38:05.904Z,0.10
2023-04-19T02:39:05.882Z,0.10
2023-04-19T02:40:05.880Z,0.10
2023-04-19T02:41:05.857Z,0.10
2023-04-19T02:42:05.847Z,0.20
2023-04-19T02:43:05.837Z,0.10
2023-04-19T02:44:05.824Z,0.10
2023-04-19T02:45:05.807Z,0.20
2023-04-19T02:46:05.832Z,0.10
2023-04-19T02:47:05.808Z,0.10
2023-04-19T02:48:05.811Z,0.10
2023-04-19T02:49:05.758Z,0.10
2023-04-19T02:50:05.940Z,0.10
2023-04-19T02:51:05.730Z,0.10
2023-04-19T02:52:05.728Z,0.10
2023-04-19T02:53:05.702Z,0.10
2023-04-19T02:54:05.688Z,0.10
2023-04-19T02:55:05.678Z,0.20
2023-04-19T02:56:05.669Z,0.20
2023-04-19T02:57:05.654Z,0.10
2023-04-19T02:58:05.643Z,0.20
2023-04-19T02:59:05.644Z,0.20
2023-04-19T03:00:05.619Z,0.20
2023-04-19T03:01:05.634Z,0.20
2023-04-19T03:02:05.601Z,0.10
2023-04-19T03:03:05.719Z,0.10
2023-04-19T03:04:05.637Z,0.10
2023-04-19T03:05:05.554Z,0.10
2023-04-19T03:06:05.576Z,0.20
2023-04-19T03:07:05.531Z,0.20
2023-04-19T03:08:05.522Z,0.10
2023-04-19T03:09:05.503Z,0.10
2023-04-19T03:10:05.503Z,0.10
2023-04-19T03:11:05.484Z,0.20
2023-04-19T03:12:05.469Z,0.20
2023-04-19T03:13:05.462Z,0.10
2023-04-19T03:14:05.447Z,0.20
2023-04-19T03:15:05.442Z,0.10
2023-04-19T03:16:05.468Z,0.20
2023-04-19T03:17:05.409Z,0.20
2023-04-19T03:18:05.452Z,0.10
2023-04-19T03:19:05.376Z,0.20
2023-04-19T03:20:05.365Z,0.10
2023-04-19T03:21:05.368Z,0.10
2023-04-19T03:22:05.369Z,0.20
2023-04-19T03:23:05.321Z,0.10
2023-04-19T03:24:05.310Z,0.10
2023-04-19T03:25:05.293Z,0.20
2023-04-19T03:26:05.282Z,0.10
2023-04-19T03:27:05.266Z,0.20
2023-04-19T03:28:05.267Z,0.10
2023-04-19T03:29:05.247Z,0.20
2023-04-19T03:30:05.228Z,0.20
2023-04-19T03:31:05.250Z,0.10
2023-04-19T03:32:05.241Z,0.10
2023-04-19T03:33:05.228Z,0.20
2023-04-19T03:34:05.180Z,0.10
2023-04-19T03:35:05.162Z,0.20
2023-04-19T03:36:05.144Z,0.10
2023-04-19T03:37:05.133Z,0.20
2023-04-19T03:38:05.148Z,0.20
2023-04-19T03:39:05.115Z,0.10
2023-04-19T03:40:05.093Z,0.20
2023-04-19T03:41:05.077Z,0.10
2023-04-19T03:42:05.066Z,0.10
2023-04-19T03:43:05.050Z,0.10
2023-04-19T03:44:05.038Z,0.10
2023-04-19T03:45:05.026Z,0.20
2023-04-19T03:46:05.089Z,0.20
2023-04-19T03:47:05.005Z,0.10
2023-04-19T03:48:05.029Z,0.10
2023-04-19T03:49:04.965Z,0.20
2023-04-19T03:50:04.968Z,0.10
2023-04-19T03:51:04.993Z,0.10
2023-04-19T03:52:04.929Z,0.10
2023-04-19T03:53:04.914Z,0.10
2023-04-19T03:54:04.926Z,0.10
2023-04-19T03:55:04.885Z,0.10
2023-04-19T03:56:04.879Z,0.10
2023-04-19T03:57:04.858Z,0.20
2023-04-19T03:58:04.846Z,0.10
2023-04-19T03:59:04.838Z,0.10
2023-04-19T04:00:04.820Z,0.10
2023-04-19T04:01:04.805Z,0.10
2023-04-19T04:02:04.876Z,0.10
2023-04-19T04:03:04.898Z,0.10
2023-04-19T04:04:05.335Z,0.10
2023-04-19T04:05:04.854Z,0.10
2023-04-19T04:06:04.752Z,0.20
2023-04-19T04:07:04.729Z,0.10
2023-04-19T04:08:04.714Z,0.10
2023-04-19T04:09:04.695Z,0.10
2023-04-19T04:10:04.733Z,0.10
2023-04-19T04:11:04.677Z,0.10
2023-04-19T04:12:04.663Z,0.10
2023-04-19T04:13:04.663Z,0.10
2023-04-19T04:14:04.627Z,0.10
2023-04-19T04:15:04.615Z,0.10
2023-04-19T04:16:04.619Z,0.10
2023-04-19T04:17:04.593Z,0.10
2023-04-19T04:18:05.350Z,0.10
2023-04-19T04:19:04.562Z,0.10
2023-04-19T04:20:04.550Z,0.10
2023-04-19T04:21:04.538Z,0.10
2023-04-19T04:22:04.523Z,0.10
2023-04-19T04:23:04.510Z,0.10
2023-04-19T04:24:04.502Z,0.10
2023-04-19T04:25:04.487Z,0.10
2023-04-19T04:26:04.556Z,0.10
2023-04-19T04:27:04.457Z,0.10
2023-04-19T04:28:04.444Z,0.10
2023-04-19T04:29:04.435Z,0.10
2023-04-19T04:30:04.444Z,0.10
2023-04-19T04:31:04.414Z,0.10
2023-04-19T04:32:04.491Z,0.10
2023-04-19T04:33:04.393Z,0.10
2023-04-19T04:34:04.416Z,0.10
2023-04-19T04:35:04.363Z,0.10
2023-04-19T04:36:04.354Z,0.10
2023-04-19T04:37:04.349Z,0.10
2023-04-19T04:38:11.054Z,0.10
2023-04-19T04:39:06.329Z,0.10
2023-04-19T04:40:04.302Z,0.10
2023-04-19T04:41:04.289Z,0.10
2023-04-19T04:42:04.307Z,0.10
2023-04-19T04:43:04.263Z,0.00
2023-04-19T04:44:12.429Z,0.10
2023-04-19T04:45:06.242Z,0.10
2023-04-19T04:46:04.291Z,0.10
2023-04-19T04:47:04.216Z,35.79
2023-04-19T04:48:04.237Z,0.20
2023-04-19T04:49:04.185Z,0.20
2023-04-19T04:50:04.182Z,0.30
2023-04-19T04:51:04.160Z,0.30
2023-04-19T04:52:04.153Z,0.20
2023-04-19T04:53:04.135Z,0.30
2023-04-19T04:54:04.122Z,0.20
2023-04-19T04:55:04.108Z,0.20
2023-04-19T04:56:04.106Z,0.20
2023-04-19T04:57:04.150Z,9.60
2023-04-19T04:58:04.099Z,3.70
2023-04-19T04:59:04.060Z,0.30
2023-04-19T05:01:04.074Z,0.20
2023-04-19T05:02:04.054Z,0.30
2023-04-19T05:03:04.196Z,0.20
2023-04-19T05:04:04.020Z,0.20
2023-04-19T05:05:03.978Z,0.30
2023-04-19T05:06:03.966Z,0.30
2023-04-19T05:07:03.953Z,0.20
2023-04-19T05:08:03.954Z,42.59
2023-04-19T05:09:03.954Z,0.20
2023-04-19T05:10:03.908Z,0.20
2023-04-19T05:11:03.900Z,0.20
2023-04-19T05:12:03.885Z,0.30
2023-04-19T05:13:03.869Z,0.20
2023-04-19T05:14:03.902Z,0.20
2023-04-19T05:15:03.852Z,0.20
2023-04-19T05:16:03.864Z,0.20
2023-04-19T05:17:05.771Z,0.20
2023-04-19T05:18:03.879Z,0.20
2023-04-19T05:19:03.795Z,47.09
2023-04-19T05:20:03.780Z,47.09
2023-04-19T05:21:03.772Z,47.40
2023-04-19T05:22:03.784Z,46.50
2023-04-19T05:23:03.745Z,47.20
2023-04-19T05:24:03.736Z,46.70
2023-04-19T05:25:03.715Z,45.50
2023-04-19T05:26:03.716Z,46.59
2023-04-19T05:27:03.687Z,44.70
2023-04-19T05:28:03.725Z,43.40
2023-04-19T05:29:03.672Z,42.70
2023-04-19T05:30:03.683Z,42.40
2023-04-19T05:31:03.661Z,43.09
2023-04-19T05:32:03.625Z,42.70
2023-04-19T05:33:03.616Z,42.90
2023-04-19T05:34:03.600Z,40.90
2023-04-19T05:35:03.588Z,42.40
2023-04-19T05:36:03.576Z,44.20
2023-04-19T05:37:03.562Z,41.79
2023-04-19T05:38:03.557Z,42.00
2023-04-19T05:39:03.553Z,42.09
2023-04-19T05:40:03.521Z,43.59
2023-04-19T05:41:03.511Z,40.70
2023-04-19T05:42:03.502Z,40.29
2023-04-19T05:43:03.487Z,41.50
2023-04-19T05:44:03.474Z,40.09
2023-04-19T05:45:05.869Z,41.50
2023-04-19T05:46:03.547Z,39.29
2023-04-19T05:47:03.435Z,38.00
2023-04-19T05:48:03.442Z,36.59
2023-04-19T05:49:03.407Z,37.70
2023-04-19T05:50:03.400Z,39.00
2023-04-19T05:51:03.389Z,38.29
2023-04-19T05:52:03.409Z,38.40
2023-04-19T05:53:03.357Z,38.20
2023-04-19T05:54:03.344Z,39.79
2023-04-19T05:55:03.332Z,41.00
2023-04-19T05:56:03.341Z,38.90
2023-04-19T05:57:03.308Z,38.00
2023-04-19T05:58:03.293Z,35.90
2023-04-19T05:59:03.282Z,32.70
2023-04-19T06:00:03.322Z,32.50
2023-04-19T06:01:03.250Z,29.60
2023-04-19T06:02:03.393Z,29.00
2023-04-19T06:03:03.340Z,28.00
2023-04-19T06:04:03.358Z,26.89
2023-04-19T06:05:09.512Z,28.20
2023-04-19T06:06:03.221Z,29.60
2023-04-19T06:07:04.530Z,29.39
2023-04-19T06:08:03.573Z,29.60
2023-04-19T06:09:03.166Z,30.79
2023-04-19T06:10:03.131Z,30.39
2023-04-19T06:11:15.196Z,30.50
2023-04-19T06:12:05.108Z,29.10
2023-04-19T06:13:03.099Z,30.50
2023-04-19T06:14:03.082Z,26.89
2023-04-19T06:15:03.072Z,28.39
2023-04-19T06:16:03.133Z,30.89
2023-04-19T06:17:03.043Z,27.89
2023-04-19T06:18:03.084Z,26.89
2023-04-19T06:19:03.024Z,29.50
2023-04-19T06:20:03.007Z,31.60
2023-04-19T06:21:02.993Z,33.79
2023-04-19T06:22:02.982Z,34.59
2023-04-19T06:23:02.963Z,37.20
2023-04-19T06:24:02.957Z,34.59
2023-04-19T06:25:02.958Z,35.29
2023-04-19T06:26:02.926Z,36.40
2023-04-19T06:27:02.920Z,36.29
2023-04-19T06:28:02.905Z,38.59
2023-04-19T06:29:02.888Z,42.00
2023-04-19T06:30:02.885Z,40.20
2023-04-19T06:31:02.971Z,43.90
2023-04-19T06:32:02.898Z,42.70
2023-04-19T06:33:02.892Z,43.20
2023-04-19T06:34:03.117Z,40.79
2023-04-19T06:35:02.820Z,41.90
2023-04-19T06:36:02.800Z,42.29
2023-04-19T06:37:02.815Z,40.00
2023-04-19T06:38:02.770Z,34.50
2023-04-19T06:39:02.763Z,36.90
2023-04-19T06:40:02.749Z,34.40
2023-04-19T06:41:02.735Z,31.50
2023-04-19T06:42:02.729Z,31.00
2023-04-19T06:43:02.707Z,32.00
2023-04-19T06:44:02.705Z,30.60
2023-04-19T06:45:02.694Z,30.50
2023-04-19T06:46:02.695Z,32.70
2023-04-19T06:47:02.689Z,32.29
2023-04-19T06:48:02.705Z,32.40
2023-04-19T06:49:02.646Z,33.70
2023-04-19T06:50:02.890Z,38.09
2023-04-19T06:51:02.602Z,40.29
2023-04-19T06:52:02.600Z,40.79
2023-04-19T06:53:04.692Z,40.79
2023-04-19T06:54:02.564Z,43.00
2023-04-19T06:55:02.563Z,35.29
2023-04-19T06:56:02.536Z,34.09
2023-04-19T06:57:02.542Z,31.50
2023-04-19T06:58:02.521Z,38.00
2023-04-19T06:59:02.511Z,36.20
2023-04-19T07:00:02.485Z,34.59
2023-04-19T07:01:02.569Z,34.59
2023-04-19T07:02:02.596Z,33.29
2023-04-19T07:03:02.624Z,34.20
2023-04-19T07:04:02.624Z,37.29
2023-04-19T07:05:02.425Z,37.00
2023-04-19T07:06:02.509Z,36.79
2023-04-19T07:07:02.401Z,34.59
2023-04-19T07:08:02.385Z,29.39
2023-04-19T07:09:02.386Z,30.00
2023-04-19T07:10:02.365Z,34.20
2023-04-19T07:11:02.354Z,33.90
2023-04-19T07:12:02.511Z,32.29
2023-04-19T07:13:02.322Z,36.00
2023-04-19T07:14:02.341Z,34.00
2023-04-19T07:15:02.308Z,35.20
2023-04-19T07:16:02.322Z,36.00
2023-04-19T07:17:02.261Z,24.79
2023-04-19T07:18:02.385Z,30.79
2023-04-19T07:19:02.284Z,43.09
2023-04-19T07:20:02.230Z,36.29
2023-04-19T07:21:02.214Z,31.29
2023-04-19T07:22:02.255Z,33.70
2023-04-19T07:23:02.189Z,34.50
2023-04-19T07:24:02.462Z,35.00
2023-04-19T07:25:02.241Z,38.09
2023-04-19T07:26:02.152Z,37.09
2023-04-19T07:27:02.185Z,40.09
2023-04-19T07:28:02.115Z,40.79
2023-04-19T07:29:02.109Z,41.70
2023-04-19T07:30:02.094Z,43.59
2023-04-19T07:31:02.079Z,40.50
2023-04-19T07:32:02.159Z,35.59
2023-04-19T07:33:02.119Z,35.20
2023-04-19T07:34:02.041Z,34.40
2023-04-19T07:35:02.028Z,31.60
2023-04-19T07:36:02.019Z,32.79
2023-04-19T07:37:02.103Z,31.50
2023-04-19T07:38:02.202Z,30.60
2023-04-19T07:39:01.988Z,32.29
2023-04-19T07:40:02.089Z,31.00
2023-04-19T07:41:01.985Z,36.09
2023-04-19T07:42:01.982Z,33.59
2023-04-19T07:43:01.927Z,33.20
2023-04-19T07:44:01.915Z,32.59
2023-04-19T07:45:01.913Z,30.20
2023-04-19T07:46:01.970Z,36.29
2023-04-19T07:47:01.881Z,36.29
2023-04-19T07:48:01.934Z,35.00
2023-04-19T07:49:01.860Z,28.20
2023-04-19T07:50:01.854Z,32.59
2023-04-19T07:51:01.826Z,36.00
2023-04-19T07:52:01.893Z,28.20
2023-04-19T07:53:01.922Z,24.60
2023-04-19T07:54:01.898Z,26.70
2023-04-19T07:55:01.769Z,26.20
2023-04-19T07:56:01.746Z,31.20
2023-04-19T07:57:01.739Z,34.20
2023-04-19T07:58:01.751Z,29.60
2023-04-19T07:59:08.147Z,27.70
2023-04-19T08:00:03.696Z,30.79
2023-04-19T08:01:01.743Z,26.00
2023-04-19T08:02:01.803Z,31.60
2023-04-19T08:03:01.810Z,27.79
2023-04-19T08:04:01.953Z,28.20
2023-04-19T08:05:01.930Z,27.89
2023-04-19T08:06:01.631Z,28.60
2023-04-19T08:07:01.606Z,24.00
2023-04-19T08:08:01.602Z,29.39
2023-04-19T08:09:01.587Z,27.79
2023-04-19T08:10:01.933Z,26.50
2023-04-19T08:11:02.051Z,31.00
2023-04-19T08:12:01.675Z,25.79
2023-04-19T08:13:05.059Z,25.89
2023-04-19T08:14:09.223Z,29.39
2023-04-19T08:15:15.423Z,27.29
2023-04-19T08:16:40.100Z,32.29
2023-04-19T08:18:01.640Z,30.70
2023-04-19T08:19:01.459Z,32.09
2023-04-19T08:20:01.483Z,35.70
2023-04-19T08:21:01.442Z,38.90
2023-04-19T08:22:01.424Z,30.70
2023-04-19T08:23:10.457Z,27.00
2023-04-19T08:24:03.396Z,32.70
2023-04-19T08:25:01.376Z,34.29
2023-04-19T08:26:01.504Z,31.00
2023-04-19T08:27:01.369Z,27.20
2023-04-19T08:28:01.342Z,26.60
2023-04-19T08:29:01.328Z,31.50
2023-04-19T08:30:01.310Z,30.20
2023-04-19T08:31:01.307Z,26.39
2023-04-19T08:32:01.353Z,28.29
2023-04-19T08:33:01.415Z,28.00
2023-04-19T08:34:01.268Z,27.10
2023-04-19T08:35:01.252Z,24.20
2023-04-19T08:36:01.242Z,25.00
2023-04-19T08:37:04.466Z,23.29
2023-04-19T08:38:02.583Z,24.50
2023-04-19T08:39:06.704Z,23.20
2023-04-19T08:40:03.188Z,28.20
2023-04-19T08:41:01.178Z,24.60
2023-04-19T08:42:05.952Z,25.20
2023-04-19T08:43:03.152Z,25.79
2023-04-19T08:44:01.140Z,26.50
2023-04-19T08:46:01.183Z,36.20
2023-04-19T08:47:01.117Z,33.79
2023-04-19T08:48:02.171Z,30.00
2023-04-19T08:49:01.102Z,33.09
2023-04-19T08:50:14.048Z,34.50
2023-04-19T08:51:05.449Z,32.20
2023-04-19T08:52:01.034Z,29.39
2023-04-19T08:53:12.255Z,29.70
2023-04-19T08:54:03.009Z,30.20
2023-04-19T08:55:00.997Z,33.00
2023-04-19T08:57:00.973Z,27.79
2023-04-19T08:58:01.097Z,22.29
2023-04-19T08:59:11.777Z,24.70
2023-04-19T09:00:00.933Z,23.89
2023-04-19T09:01:00.983Z,27.00
2023-04-19T09:02:00.971Z,32.20
2023-04-19T09:03:01.081Z,31.70
2023-04-19T09:04:10.209Z,28.60
2023-04-19T09:05:01.135Z,27.89
2023-04-19T09:06:00.901Z,27.50
2023-04-19T09:07:00.840Z,27.50
2023-04-19T09:08:00.826Z,27.79
2023-04-19T09:09:00.814Z,29.00
2023-04-19T09:10:03.745Z,26.29
2023-04-19T09:11:00.795Z,31.10
2023-04-19T09:12:00.824Z,24.10
2023-04-19T09:13:00.759Z,28.50
2023-04-19T09:14:00.785Z,28.10
2023-04-19T09:15:05.125Z,28.60
2023-04-19T09:16:00.904Z,28.10
2023-04-19T09:17:00.715Z,25.00
2023-04-19T09:18:00.791Z,24.20
2023-04-19T09:19:15.235Z,24.50
2023-04-19T09:20:02.679Z,25.29
2023-04-19T09:21:00.661Z,27.60
2023-04-19T09:22:00.646Z,29.89
2023-04-19T09:23:00.638Z,26.20
2023-04-19T09:24:02.351Z,28.20
2023-04-19T09:26:22.166Z,26.29
2023-04-19T09:27:00.593Z,28.89
2023-04-19T09:28:00.568Z,30.00
2023-04-19T09:29:00.574Z,28.10
2023-04-19T09:30:00.604Z,28.00
2023-04-19T09:31:07.015Z,27.00
2023-04-19T09:32:00.656Z,26.89
2023-04-19T09:33:00.571Z,27.29
2023-04-19T09:34:00.494Z,26.79
2023-04-19T09:35:00.502Z,27.20
2023-04-19T09:36:00.475Z,26.29
2023-04-19T09:37:10.982Z,25.00
2023-04-19T09:38:06.213Z,26.20
2023-04-19T09:39:00.424Z,29.50
2023-04-19T09:40:00.437Z,29.79
2023-04-19T09:41:00.401Z,20.70
2023-04-19T09:42:00.388Z,24.10
2023-04-19T09:43:15.070Z,22.60
2023-04-19T09:44:20.346Z,23.29
2023-04-19T09:45:27.726Z,24.60
2023-04-19T09:46:02.832Z,25.39
2023-04-19T09:47:00.402Z,23.79
2023-04-19T09:48:00.423Z,24.29
2023-04-19T09:49:03.905Z,24.10
2023-04-19T09:50:00.752Z,30.70
2023-04-19T09:51:03.688Z,25.10
2023-04-19T09:52:00.262Z,25.89
2023-04-19T09:53:00.256Z,22.39
2023-04-19T09:54:00.228Z,23.50
2023-04-19T09:55:00.986Z,22.50
2023-04-19T09:56:02.713Z,25.39
2023-04-19T09:57:01.434Z,26.10
2023-04-19T09:58:00.180Z,25.20
2023-04-19T09:59:08.773Z,27.70
2023-04-19T10:00:02.161Z,24.70
2023-04-19T10:01:13.511Z,25.79
2023-04-19T10:02:00.465Z,24.20
2023-04-19T10:03:00.194Z,26.00
2023-04-19T10:04:14.565Z,27.00
2023-04-19T10:05:19.658Z,25.00
2023-04-19T10:06:10.192Z,26.00
2023-04-19T10:07:25.179Z,30.29
2023-04-19T10:08:00.531Z,30.10
2023-04-19T10:09:00.043Z,26.10
2023-04-19T10:11:00.026Z,25.10
2023-04-19T10:12:06.509Z,26.00
2023-04-19T10:13:18.136Z,26.20
2023-04-19T10:14:01.977Z,27.50
2023-04-19T10:14:59.972Z,27.00
2023-04-19T10:16:11.491Z,30.70
2023-04-19T10:16:59.973Z,30.79
2023-04-19T10:18:00.019Z,21.00
2023-04-19T10:18:59.913Z,28.79
2023-04-19T10:19:59.901Z,26.50
2023-04-19T10:21:00.128Z,28.89
2023-04-19T10:21:59.875Z,27.50
2023-04-19T10:22:59.876Z,23.79
2023-04-19T10:23:59.862Z,25.50
2023-04-19T10:24:59.841Z,26.89
2023-04-19T10:25:59.833Z,26.39
2023-04-19T10:26:59.815Z,27.29
2023-04-19T10:27:59.811Z,27.39
2023-04-19T10:28:59.792Z,29.60
2023-04-19T10:29:59.786Z,27.20
2023-04-19T10:30:59.767Z,27.29
2023-04-19T10:31:59.772Z,27.39
2023-04-19T10:32:59.766Z,26.20
2023-04-19T10:33:59.829Z,27.70
2023-04-19T10:34:59.717Z,20.20
2023-04-19T10:35:59.702Z,21.60
2023-04-19T10:36:59.687Z,20.29
2023-04-19T10:37:59.678Z,21.79
2023-04-19T10:38:59.675Z,24.20
2023-04-19T10:39:59.657Z,27.70
2023-04-19T10:40:59.646Z,28.20
2023-04-19T10:41:59.720Z,26.60
2023-04-19T10:42:59.616Z,28.29
2023-04-19T10:43:59.606Z,26.10
2023-04-19T10:44:59.594Z,28.70
2023-04-19T10:45:59.588Z,25.39
2023-04-19T10:46:59.572Z,26.10
2023-04-19T10:47:59.617Z,27.20
2023-04-19T10:48:59.635Z,26.89
2023-04-19T10:49:59.647Z,25.39
2023-04-19T10:50:59.525Z,23.70
2023-04-19T10:51:59.509Z,26.79
2023-04-19T10:52:59.494Z,25.00
2023-04-19T10:53:59.494Z,22.10
2023-04-19T10:54:59.484Z,22.10
2023-04-19T10:55:59.469Z,26.10
2023-04-19T10:56:59.483Z,24.00
2023-04-19T10:57:59.459Z,30.60
2023-04-19T10:58:59.435Z,26.60
2023-04-19T10:59:59.414Z,26.29
2023-04-19T11:00:59.411Z,24.00
2023-04-19T11:01:59.497Z,24.29
2023-04-19T11:02:59.523Z,28.00
2023-04-19T11:03:59.662Z,23.60
2023-04-19T11:04:59.346Z,23.70
2023-04-19T11:05:59.413Z,21.70
2023-04-19T11:06:59.328Z,19.89
2023-04-19T11:07:59.308Z,25.89
2023-04-19T11:08:59.310Z,26.50
2023-04-19T11:09:59.301Z,24.10
2023-04-19T11:10:59.270Z,26.10
2023-04-19T11:11:59.255Z,26.89
2023-04-19T11:12:59.247Z,25.60
2023-04-19T11:13:59.236Z,27.10
2023-04-19T11:14:59.223Z,26.00
2023-04-19T11:15:59.253Z,28.39
2023-04-19T11:16:59.283Z,25.29
2023-04-19T11:18:11.881Z,23.29
2023-04-19T11:19:01.168Z,26.29
2023-04-19T11:19:59.163Z,25.20
2023-04-19T11:20:59.146Z,22.79
2023-04-19T11:21:59.182Z,27.20
2023-04-19T11:22:59.121Z,23.50
2023-04-19T11:23:59.111Z,26.20
2023-04-19T11:24:59.100Z,22.10
2023-04-19T11:25:59.088Z,25.10
2023-04-19T11:26:59.067Z,22.70
2023-04-19T11:27:59.061Z,23.89
2023-04-19T11:28:59.049Z,24.89
2023-04-19T11:29:59.036Z,24.79
2023-04-19T11:30:59.043Z,27.50
2023-04-19T11:31:59.009Z,27.10
2023-04-19T11:32:59.082Z,25.79
2023-04-19T11:33:58.988Z,24.70
2023-04-19T11:34:58.972Z,27.39
2023-04-19T11:35:58.960Z,26.10
2023-04-19T11:36:58.944Z,27.79
2023-04-19T11:37:58.971Z,25.60
2023-04-19T11:38:58.923Z,27.10
2023-04-19T11:39:58.910Z,27.00
2023-04-19T11:40:58.896Z,29.10
2023-04-19T11:41:58.884Z,27.50
2023-04-19T11:42:58.873Z,22.89
2023-04-19T11:43:58.865Z,25.29
2023-04-19T11:44:58.858Z,25.20
2023-04-19T11:45:58.838Z,30.20
2023-04-19T11:46:59.053Z,26.89
2023-04-19T11:47:58.917Z,23.79
2023-04-19T11:48:58.843Z,30.70
2023-04-19T11:49:58.802Z,27.70
2023-04-19T11:50:58.781Z,28.10
2023-04-19T11:51:58.796Z,28.60
2023-04-19T11:52:58.750Z,27.20
2023-04-19T11:53:58.773Z,28.10
2023-04-19T11:54:58.722Z,23.29
2023-04-19T11:55:58.755Z,28.89
2023-04-19T11:56:58.717Z,28.39
2023-04-19T11:57:58.688Z,30.10
2023-04-19T11:58:58.693Z,30.50
2023-04-19T11:59:58.662Z,29.10
2023-04-19T12:00:58.689Z,28.50
2023-04-19T12:01:58.647Z,29.89
2023-04-19T12:02:58.781Z,27.29
2023-04-19T12:03:58.829Z,28.70
2023-04-19T12:04:58.731Z,25.29
2023-04-19T12:05:58.830Z,27.39
2023-04-19T12:06:58.640Z,28.70
2023-04-19T12:07:58.562Z,26.60
2023-04-19T12:08:58.554Z,26.29
2023-04-19T12:09:58.567Z,29.10
2023-04-19T12:10:58.534Z,28.10
2023-04-19T12:11:58.532Z,27.89
2023-04-19T12:12:58.503Z,27.10
2023-04-19T12:13:58.494Z,27.70
2023-04-19T12:14:58.480Z,27.00
2023-04-19T12:15:58.468Z,27.70
2023-04-19T12:16:58.544Z,28.20
2023-04-19T12:17:58.506Z,29.00
2023-04-19T12:18:58.428Z,27.60
2023-04-19T12:19:58.421Z,25.29
2023-04-19T12:21:00.787Z,24.10
2023-04-19T12:21:58.392Z,26.20
2023-04-19T12:22:58.375Z,24.60
2023-04-19T12:23:58.365Z,26.10
2023-04-19T12:24:58.351Z,27.29
2023-04-19T12:25:58.384Z,26.20
2023-04-19T12:26:59.125Z,25.00
2023-04-19T12:27:58.314Z,28.70
2023-04-19T12:28:58.311Z,26.89
2023-04-19T12:29:58.290Z,28.39
2023-04-19T12:30:58.278Z,26.10
2023-04-19T12:31:58.356Z,27.10
2023-04-19T12:32:58.281Z,30.29
2023-04-19T12:33:58.241Z,26.39
2023-04-19T12:34:58.234Z,27.79
2023-04-19T12:35:58.214Z,26.89
2023-04-19T12:36:58.200Z,26.20
2023-04-19T12:37:58.184Z,25.50
2023-04-19T12:38:58.176Z,27.70
2023-04-19T12:39:58.169Z,27.00
2023-04-19T12:40:58.151Z,28.29
2023-04-19T12:41:58.165Z,31.79
2023-04-19T12:42:58.125Z,28.10
2023-04-19T12:43:58.113Z,26.70
2023-04-19T12:44:58.109Z,30.20
2023-04-19T12:45:58.181Z,30.00
2023-04-19T12:46:58.158Z,31.70
2023-04-19T12:47:58.085Z,30.79
2023-04-19T12:48:58.047Z,27.29
2023-04-19T12:49:58.044Z,28.20
2023-04-19T12:50:58.036Z,29.60
2023-04-19T12:51:58.018Z,28.00
2023-04-19T12:52:58.000Z,28.29
2023-04-19T12:53:58.006Z,28.10
2023-04-19T12:54:57.984Z,26.00
2023-04-19T12:55:57.962Z,26.20
2023-04-19T12:56:57.953Z,26.20
2023-04-19T12:57:57.980Z,27.50
2023-04-19T12:58:57.922Z,29.50
2023-04-19T12:59:57.909Z,30.29
2023-04-19T13:01:58.083Z,29.70
2023-04-19T13:02:57.965Z,33.00
2023-04-19T13:03:59.204Z,31.00
2023-04-19T13:04:57.969Z,29.00
2023-04-19T13:05:57.841Z,27.70
2023-04-19T13:06:57.820Z,29.60
2023-04-19T13:07:57.816Z,32.79
2023-04-19T13:09:01.138Z,32.40
2023-04-19T13:09:57.786Z,31.70